Home > Products > Valid Products > TAF

000
FTUS46 KMFR 250200 AAA
TAFRBG
TAF AMD
KRBG 250258Z 2503/2524 VRB02KT 6SM BR BKN008
     FM251200 17006KT P6SM -RA SCT015 BKN035
     FM251700 18015G24KT P6SM -RA SCT015 OVC035=



000
FTUS46 KMFR 242300 RRA
TAFMFR
TAF
KMFR 242350Z 2500/2524 VRB03KT P6SM SCT080
     FM250600 14009G14KT P6SM SCT080 BKN120
     FM251000 15014G23KT P6SM BKN080 OVC120
     FM251700 15022G30KT P6SM VCSH OVC070
     FM252100 18012KT P6SM -RA BKN040 OVC060=



000
FTUS46 KMFR 242300 RRA
TAFRBG
TAF
KRBG 242350Z 2500/2524 VRB03KT P6SM BKN015
     FM250300 VRB02KT P6SM SCT040
     FM251200 17006KT P6SM -RA SCT030 BKN040
     FM251700 18015G24KT P6SM -RA SCT015 OVC035=



000
FTUS46 KMFR 242300 RRA
TAFLMT
TAF
KLMT 242350Z 2500/2524 18015G27KT P6SM SCT100
     FM250300 16012KT P6SM BKN200
     FM251300 17023G34KT P6SM BKN060
     FM251700 18032G45KT P6SM -SHRA SCT040 OVC050=



000
FTUS46 KMFR 242300 RRA
TAFOTH
TAF
KOTH 242350Z 2500/2524 13007KT P6SM -SHRA SCT035 BKN060
     FM250300 13007KT P6SM VCSH SCT040 BKN070
     FM250800 15009KT P6SM -SHRA BKN035 OVC050 WS020/19040KT
     FM251400 17015G25KT P6SM -RA BKN035 OVC050
     FM251700 18025G34KT P6SM RA BKN020 OVC035=



000
FTUS46 KMFR 242200 AAB
TAFRBG
TAF AMD
KRBG 242200Z 2422/2518 03003KT P6SM -RA SCT009 BKN060
      TEMPO 2422/2423 BKN009
     FM242300 VRB03KT P6SM -RA SCT020 BKN050 OVC080
     FM250000 VRB03KT P6SM FEW025 BKN060
     FM251200 16010KT P6SM -RA SCT030 BKN050=



000
FTUS46 KMFR 241800 AAA
TAFRBG
TAF AMD
KRBG 241858Z 2419/2518 03003KT P6SM -RA SCT006 BKN035 OVC070
      TEMPO 2419/2420 BKN006
     FM242000 VRB03KT P6SM -RA SCT020 BKN050 OVC080
     FM242200 VRB03KT P6SM FEW025 BKN060
     FM251200 16010KT P6SM -RA SCT030 BKN050=



000
FTUS46 KMFR 241700 RRA
TAFMFR
TAF
KMFR 241754Z 2418/2518 VRB03KT P6SM -SHRA SCT008 OVC100
      TEMPO 2418/2419 BKN008
     FM241900 15005KT P6SM VCSH SCT020 BKN050 OVC080
     FM242100 15010KT P6SM SCT080=



000
FTUS46 KMFR 241700 RRA
TAFOTH
TAF
KOTH 241754Z 2418/2518 09006KT P6SM -RA SCT040 BKN070
     FM242000 10008KT P6SM -RA BKN035 BKN050
     FM250200 15010KT P6SM SCT050 BKN080
     FM251000 17015G25KT P6SM -RA BKN035 OVC050=



000
FTUS46 KMFR 241700 RRA
TAFLMT
TAF
KLMT 241754Z 2418/2518 17012KT P6SM SCT020 SCT050 BKN100
     FM242000 18015G27KT P6SM SCT100
     FM250300 16012KT P6SM BKN200
     FM251300 17015G25KT P6SM -SHRA BKN030 BKN060=



000
FTUS46 KMFR 241700 RRA
TAFRBG
TAF
KRBG 241754Z 2418/2518 03003KT P6SM -RA SCT005 BKN035 OVC070
      TEMPO 2418/2420 BKN005
     FM242000 VRB03KT P6SM -RA SCT020 BKN050 OVC080
     FM242200 VRB03KT P6SM FEW025 BKN060
     FM251200 16010KT P6SM -RA SCT030 BKN050=



000
FTUS46 KMFR 241600 AAB
TAFMFR
TAF AMD
KMFR 241601Z 2416/2512 VRB03KT P6SM -SHRA BKN003 OVC012
     FM241700 15003KT P6SM -RA SCT015 OVC035
     FM241900 15005KT P6SM VCSH SCT020 BKN050 OVC080
     FM242100 15010KT P6SM SCT080=



000
FTUS46 KMFR 241500 AAA
TAFRBG
TAF AMD
KRBG 241519Z 2415/2512 03003KT P6SM -RA SCT003 BKN035 OVC070
      TEMPO 2415/2418 3SM RA BR BKN003
     FM242000 VRB03KT P6SM -RA SCT020 BKN050 OVC080
     FM242200 VRB03KT P6SM FEW025 BKN060=



000
FTUS46 KMFR 241300 AAA
TAFMFR
TAF AMD
KMFR 241306Z 2413/2512 VRB03KT 4SM RA BKN005 OVC025
     FM241600 15003KT P6SM -RA SCT025 OVC035
     FM241800 15005KT P6SM VCSH SCT020 BKN050 OVC080
     FM242100 15010KT P6SM SCT080=



000
FTUS46 KMFR 241100
TAFOTH
TAF
KOTH 241140Z 2412/2512 14006KT P6SM -RA BKN050 OVC080
     FM241800 09006KT 5SM RA BR BKN035 OVC050
     FM242100 10008KT P6SM -RA BKN035 BKN050
     FM250200 17010KT P6SM BKN050 OVC080=



000
FTUS46 KMFR 241100
TAFMFR
TAF
KMFR 241140Z 2412/2512 VRB03KT 3SM RA SCT010 BKN025 OVC035
     FM241600 15003KT P6SM -RA SCT025 OVC035
     FM241800 15005KT P6SM VCSH SCT020 BKN050 OVC080
     FM242100 15010KT P6SM SCT080=



000
FTUS46 KMFR 241100
TAFRBG
TAF
KRBG 241140Z 2412/2512 03003KT 5SM -RA SCT009 BKN035 OVC050
     FM241400 03003KT 3SM RA BR BKN008 BKN025 OVC050
     FM242000 VRB03KT P6SM -RA SCT020 BKN050 OVC080
     FM242200 VRB03KT P6SM FEW025 BKN060=



000
FTUS46 KMFR 241100
TAFLMT
TAF
KLMT 241140Z 2412/2512 14006KT P6SM -RA BKN015 OVC035
     FM241500 15008KT P6SM SCT015 BKN035 BKN060
     FM241800 17012KT P6SM SCT020 SCT050 BKN100
     FM242000 18015G27KT P6SM SCT100
     FM250300 16010KT P6SM BKN200=



000
FTUS46 KMFR 240500 RRA
TAFRBG
TAF
KRBG 240542Z 2406/2506 00000KT P6SM FEW050 BKN150
     FM240900 00000KT P6SM VCSH BKN020 BKN050 BKN080
     FM241200 00000KT 4SM -SHRA BR SCT010 BKN020 BKN050
     FM241500 00000KT 3SM -RA BR BKN008 BKN025 OVC050
     FM242000 VRB03KT P6SM -RA SCT020 BKN050 OVC080
     FM242200 VRB03KT P6SM FEW025 BKN060=



000
FTUS46 KMFR 240500 RRA
TAFMFR
TAF
KMFR 240542Z 2406/2506 00000KT P6SM -RA OVC060
     FM240700 00000KT 6SM -RA BR SCT035 OVC050
     FM240900 00000KT 3SM -RA BR BKN007 BKN020 OVC040
     FM241700 VRB03KT P6SM VCSH SCT020 BKN050 OVC080
     FM242100 15006KT P6SM SCT070=



000
FTUS46 KMFR 240500 RRA
TAFOTH
TAF
KOTH 240542Z 2406/2506 16005KT P6SM SCT040 BKN090
     FM241000 14004KT 5SM BR SCT003 BKN015 BKN060
     FM241500 VRB03KT P6SM -RA FEW020 SCT035 OVC050
     FM242100 10008KT P6SM -RA BKN035 BKN050
     FM250200 14006KT P6SM -SHRA SCT025 BKN050 BKN080=



000
FTUS46 KMFR 240500 RRA
TAFLMT
TAF
KLMT 240542Z 2406/2506 16006KT P6SM -RA OVC040
     FM240700 16006KT 5SM -RA BR SCT007 BKN025 OVC035
     FM241400 15008KT P6SM SCT015 BKN035 BKN060
     FM241800 17012KT P6SM SCT020 SCT050 BKN100
     FM242000 18015G27KT P6SM SCT100
     FM250300 16010KT P6SM BKN200=



000
FTUS46 KMFR 232300
TAFLMT
TAF
KLMT 232335Z 2400/2424 21010KT 5SM RA BR SCT015 BKN025 OVC050
     FM240300 16005KT 3SM RA BR SCT007 BKN015 OVC030
     FM240600 09003KT 5SM -RA BR SCT007 BKN015 OVC030
     FM241400 15008KT P6SM SCT025 BKN060
     FM242000 18015G23KT P6SM SCT070=



000
FTUS46 KMFR 232300
TAFOTH
TAF
KOTH 232335Z 2400/2424 22009KT P6SM FEW040 BKN100
     FM240300 16005KT P6SM VCSH FEW025 BKN035 BKN050
     FM241000 14004KT 5SM BR SCT003 BKN025 OVC200
     FM241600 VRB03KT P6SM -RA FEW008 BKN035 OVC050
     FM242200 10008KT P6SM SCT035 BKN050=



000
FTUS46 KMFR 232300
TAFRBG
TAF
KRBG 232335Z 2400/2424 VRB03KT P6SM SCT040 BKN100
     FM240600 00000KT P6SM VCSH SCT015 BKN025 OVC035
     FM241200 00000KT 3SM -RA BR SCT010 BKN020 OVC080
     FM241500 00000KT 3SM -RA BR BKN005 OVC020
     FM242000 VRB03KT P6SM SCT020 BKN050 OVC080=



000
FTUS46 KMFR 232300
TAFMFR
TAF
KMFR 232335Z 2400/2424 VRB03KT P6SM VCSH SCT030 BKN040
     FM240500 00000KT 6SM -RA BR SCT020 OVC050
     FM240800 00000KT 3SM -RA BR BKN007 BKN020 OVC025
     FM241800 VRB03KT P6SM SCT020 BKN050 OVC080
     FM242100 15006KT P6SM SCT100=



000
FTUS46 KMFR 231800 AAA
TAFLMT
TAF AMD
KLMT 231858Z 2319/2418 17015KT P6SM -RA SCT020 BKN040 OVC060
     FM232100 21010KT 5SM RA BR SCT010 BKN020 OVC040
     FM240300 16005KT 3SM -RA BR SCT007 BKN015 OVC030=



000
FTUS46 KMFR 231800 AAA
TAFLMT
TAF AMD
KLMT 231858Z 2319/2418 17015KT P6SM -RA SCT020 BKN040 OVC060
     FM232100 21010KT 5SM RA BR SCT010 BKN020 OVC040
     FM240300 16005KT 3SM -RA BR SCT007 BKN015 OVC030=



000
FTUS46 KMFR 231800 AAA
TAFMFR
TAF AMD
KMFR 231849Z 2319/2418 VRB03KT 4SM -SHRA BR BKN004 BKN040 OVC060
     FM232100 30005KT P6SM -SHRA SCT030 BKN040 OVC080
     FM240000 VRB03KT P6SM VCSH SCT035 BKN050 OVC080
     FM240300 00000KT 6SM -RA BR SCT020 OVC050
     FM241200 00000KT 3SM -RA BR SCT007 BKN020 OVC040=



000
FTUS46 KMFR 231800 AAA
TAFMFR
TAF AMD
KMFR 231849Z 2319/2418 VRB03KT 4SM -SHRA BR BKN004 BKN040 OVC060
     FM232100 30005KT P6SM -SHRA SCT030 BKN040 OVC080
     FM240000 VRB03KT P6SM VCSH SCT035 BKN050 OVC080
     FM240300 00000KT 6SM -RA BR SCT020 OVC050
     FM241200 00000KT 3SM -RA BR SCT007 BKN020 OVC040=



000
FTUS46 KMFR 231800 CCA
TAFRBG
TAF COR
KRBG 231802Z 2318/2418 17003KT P6SM VCSH FEW020 BKN040 OVC060
     FM232100 35006KT P6SM -SHRA SCT025 BKN035 OVC040
     FM240000 VRB03KT P6SM VCSH SCT025 OVC035
     FM240600 00000KT P6SM -SHRA SCT015 BKN025 OVC035
     FM241200 00000KT 3SM -RA BR SCT010 BKN020 OVC080=



000
FTUS46 KMFR 231800 CCA
TAFRBG
TAF COR
KRBG 231802Z 2318/2418 17003KT P6SM VCSH FEW020 BKN040 OVC060
     FM232100 35006KT P6SM -SHRA SCT025 BKN035 OVC040
     FM240000 VRB03KT P6SM VCSH SCT025 OVC035
     FM240600 00000KT P6SM -SHRA SCT015 BKN025 OVC035
     FM241200 00000KT 3SM -RA BR SCT010 BKN020 OVC080=



000
FTUS46 KMFR 231700 RRA
TAFLMT
TAF
KLMT 231741Z 2318/2418 17012G19KT P6SM -SHRA BKN035 OVC050
     FM240000 22011KT P6SM -SHRA SCT025 BKN035 BKN050
     FM240300 16004KT P6SM -SHRA BKN035 OVC050=



000
FTUS46 KMFR 231700 RRA
TAFMFR
TAF
KMFR 231741Z 2318/2418 VRB03KT 5SM -SHRA BR BKN004 BKN040 OVC060
     FM232100 26009KT P6SM -SHRA SCT040 OVC060
     FM240300 VRB04KT P6SM VCSH SCT035 BKN040=



000
FTUS46 KMFR 231700 RRA
TAFOTH
TAF
KOTH 231741Z 2318/2418 20008KT P6SM -SHRA BKN015 BKN025 OVC050
     FM232100 22009KT P6SM -SHRA SCT015 BKN025 OVC040
     FM240300 16005KT P6SM VCSH FEW025 BKN035 BKN050
     FM241000 14004KT 5SM BR SCT003 BKN025 OVC200
     FM241600 VRB03KT P6SM -RA FEW008 SCT050 OVC080=



000
FTUS46 KMFR 231700 RRA
TAFRBG
TAF
KRBG 231741Z 2318/2418 17003KT P6SM VCSH FEW020 BKN040 OVC060
     FM231900 35006KT P6SM -SHRA SCT025 BKN035 OVC040
     FM240300 VRB03KT P6SM VCSH FEW025 BKN040
     FM240700 00000KT 3SM BR BKN020=



000
FTUS46 KMFR 231700 RRA
TAFLMT
TAF
KLMT 231741Z 2318/2418 17012G19KT P6SM -SHRA BKN035 OVC050
     FM240000 22011KT P6SM -SHRA SCT025 BKN035 BKN050
     FM240300 16004KT P6SM -SHRA BKN035 OVC050=



000
FTUS46 KMFR 231700 RRA
TAFOTH
TAF
KOTH 231741Z 2318/2418 20008KT P6SM -SHRA BKN015 BKN025 OVC050
     FM232100 22009KT P6SM -SHRA SCT015 BKN025 OVC040
     FM240300 16005KT P6SM VCSH FEW025 BKN035 BKN050
     FM241000 14004KT 5SM BR SCT003 BKN025 OVC200
     FM241600 VRB03KT P6SM -RA FEW008 SCT050 OVC080=



000
FTUS46 KMFR 231700 RRA
TAFRBG
TAF
KRBG 231741Z 2318/2418 17003KT P6SM VCSH FEW020 BKN040 OVC060
     FM231900 35006KT P6SM -SHRA SCT025 BKN035 OVC040
     FM240300 VRB03KT P6SM VCSH FEW025 BKN040
     FM240700 00000KT 3SM BR BKN020=



000
FTUS46 KMFR 231700 RRA
TAFMFR
TAF
KMFR 231741Z 2318/2418 VRB03KT 5SM -SHRA BR BKN004 BKN040 OVC060
     FM232100 26009KT P6SM -SHRA SCT040 OVC060
     FM240300 VRB04KT P6SM VCSH SCT035 BKN040=



000
FTUS46 KMFR 231700 AAA
TAFOTH
TAF AMD
KOTH 231708Z 2317/2412 18007KT P6SM VCSH FEW006 SCT020 OVC050
     FM231800 23010KT P6SM -SHRA SCT025 BKN035
     FM240200 18005KT P6SM VCSH SCT035 SCT050 BKN100
     FM240600 15004KT 3SM BR BKN008=



000
FTUS46 KMFR 231700 AAA
TAFOTH
TAF AMD
KOTH 231708Z 2317/2412 18007KT P6SM VCSH FEW006 SCT020 OVC050
     FM231800 23010KT P6SM -SHRA SCT025 BKN035
     FM240200 18005KT P6SM VCSH SCT035 SCT050 BKN100
     FM240600 15004KT 3SM BR BKN008=



000
FTUS46 KMFR 231700 AAA
TAFRBG
TAF AMD
KRBG 231706Z 2317/2412 17003KT P6SM VCSH FEW020 BKN040 OVC060
     FM231900 35006KT P6SM -SHRA SCT025 BKN035 OVC040
     FM240300 VRB03KT P6SM VCSH FEW025 BKN040
     FM240700 00000KT 3SM BR BKN020=



000
FTUS46 KMFR 231700 AAB
TAFMFR
TAF AMD
KMFR 231706Z 2317/2412 VRB03KT 6SM -SHRA BR BKN004 BKN040 OVC060
     FM232100 26009KT P6SM -SHRA SCT040 OVC060
     FM240300 VRB04KT P6SM VCSH SCT035 BKN040=



000
FTUS46 KMFR 231700 AAA
TAFRBG
TAF AMD
KRBG 231706Z 2317/2412 17003KT P6SM VCSH FEW020 BKN040 OVC060
     FM231900 35006KT P6SM -SHRA SCT025 BKN035 OVC040
     FM240300 VRB03KT P6SM VCSH FEW025 BKN040
     FM240700 00000KT 3SM BR BKN020=



000
FTUS46 KMFR 231700 AAB
TAFMFR
TAF AMD
KMFR 231706Z 2317/2412 VRB03KT 6SM -SHRA BR BKN004 BKN040 OVC060
     FM232100 26009KT P6SM -SHRA SCT040 OVC060
     FM240300 VRB04KT P6SM VCSH SCT035 BKN040=



000
FTUS46 KMFR 231600 AAA
TAFMFR
TAF AMD
KMFR 231625Z 2316/2412 VRB03KT P6SM -SHRA SCT030 BKN040 OVC060
      TEMPO 2316/2317 5SM SHRA BR BKN004 BKN040 OVC060
     FM232100 26009KT P6SM -SHRA SCT040 OVC060
     FM240300 VRB04KT P6SM VCSH SCT035 BKN040=



000
FTUS46 KMFR 231100
TAFLMT
TAF
KLMT 231134Z 2312/2412 17012KT P6SM -RA SCT025 OVC060
     FM231800 20014G23KT P6SM -SHRA BKN035 OVC050
     FM240000 22011KT P6SM -SHRA SCT025 BKN035 BKN050
     FM240300 16004KT P6SM -SHRA BKN035 OVC050=



000
FTUS46 KMFR 231100
TAFRBG
TAF
KRBG 231134Z 2312/2412 17003KT P6SM -RA BKN020 OVC040
     FM231900 35006KT P6SM -SHRA SCT025 BKN035 OVC040
     FM240300 VRB03KT P6SM VCSH FEW025 BKN040
     FM240700 00000KT 3SM BR BKN020=



000
FTUS46 KMFR 231100
TAFMFR
TAF
KMFR 231134Z 2312/2412 VRB03KT P6SM -RA SCT030 BKN040 OVC060
     FM232100 26009KT P6SM -SHRA SCT040 OVC060
     FM240300 VRB04KT P6SM VCSH SCT035 BKN040=



000
FTUS46 KMFR 231100
TAFOTH
TAF
KOTH 231134Z 2312/2412 21008KT 6SM -RA BR SCT006 BKN014 OVC020
     FM231800 23010KT P6SM -SHRA SCT025 BKN035
     FM240200 18005KT P6SM VCSH SCT035 SCT050 BKN100
     FM240600 15004KT 3SM BR BKN008=



000
FTUS46 KMFR 230500 RRA
TAFRBG
TAF
KRBG 230543Z 2306/2406 VRB04KT 3SM RA SCT025 OVC040
     FM230900 VRB03KT P6SM -SHRA BKN025 OVC040
     FM231300 VRB03KT P6SM -SHRA BKN020 BKN030 OVC040
     FM231800 19008KT P6SM -SHRA SCT025 BKN035 OVC040
     FM240300 VRB03KT P6SM VCSH FEW025 BKN040=



000
FTUS46 KMFR 230500 RRA
TAFLMT
TAF
KLMT 230543Z 2306/2406 17012KT P6SM -RA SCT030 BKN040 OVC080
     FM231000 19012G19KT P6SM -RA SCT015 BKN025 OVC040
     FM231800 22014G22KT P6SM -SHRA SCT025 BKN035 BKN050
     FM240000 22010KT P6SM -SHRA SCT025 BKN035 BKN050
     FM240300 17004KT P6SM -RA BKN025 BKN035 OVC050=



000
FTUS46 KMFR 230500 RRA
TAFMFR
TAF
KMFR 230543Z 2306/2406 22006KT P6SM -RA SCT030 BKN050 OVC070
     FM230800 20005KT 6SM -RA BR FEW020 SCT030 OVC050
     FM231200 VRB04KT P6SM -SHRA SCT030 BKN040 OVC060
     FM232100 25009KT P6SM -SHRA SCT040 OVC060
     FM240300 VRB04KT P6SM SCT035 BKN060=



000
FTUS46 KMFR 230500 RRA
TAFOTH
TAF
KOTH 230543Z 2306/2406 21006KT P6SM -SHRA BKN010 OVC025
     FM230900 21008KT 5SM -SHRA BR SCT006 BKN010 OVC025
     FM231800 22010KT P6SM -SHRA SCT025 BKN035
     FM240200 18006KT P6SM VCSH SCT035 SCT050 BKN100=



000
FTUS46 KMFR 230400 AAA
TAFOTH
TAF AMD
KOTH 230458Z 2305/2324 21008KT P6SM -SHRA BKN012 OVC025
     FM231800 22012KT P6SM -SHRA SCT025 BKN035=



000
FTUS46 KMFR 230400 AAA
TAFOTH
TAF AMD
KOTH 230458Z 2305/2324 21008KT P6SM -SHRA BKN012 OVC025
     FM231800 22012KT P6SM -SHRA SCT025 BKN035=



000
FTUS46 KMFR 230200 AAA
TAFLMT
TAF AMD
KLMT 230245Z 2303/2324 18015KT P6SM -SHRA SCT040 BKN080 OVC100
     FM230600 17012KT P6SM -RA SCT030 BKN040 OVC080
     FM231000 19012G19KT P6SM -RA SCT015 BKN025 OVC040
     FM231800 22014G22KT P6SM -SHRA SCT025 BKN035 BKN050=



000
FTUS46 KMFR 230000 AAA
TAFRBG
TAF AMD
KRBG 230037Z 2301/2324 18005KT 4SM RA SCT035 OVC060
     FM230400 VRB04KT 4SM RA BKN025 OVC040
     FM231300 VRB03KT P6SM -SHRA BKN020 OVC030
     FM231800 19008KT P6SM -SHRA SCT025 OVC040=



000
FTUS46 KMFR 230000 AAA
TAFRBG
TAF AMD
KRBG 230037Z 2301/2324 18005KT 4SM RA SCT035 OVC060
     FM230400 VRB04KT 4SM RA BKN025 OVC040
     FM231300 VRB03KT P6SM -SHRA BKN020 OVC030
     FM231800 19008KT P6SM -SHRA SCT025 OVC040=



000
FTUS46 KMFR 222300 RRA
TAFLMT
TAF
KLMT 222347Z 2300/2324 19012G20KT P6SM -SHRA SCT040 BKN060 OVC100
     FM230100 18010G18KT P6SM SCT040 SCT060 OVC100
     FM230600 17012KT P6SM -RA SCT030 BKN040 OVC080
     FM231200 19012G19KT P6SM -RA SCT010 BKN020 OVC030=



000
FTUS46 KMFR 222300 RRA
TAFRBG
TAF
KRBG 222347Z 2300/2324 17010G20KT 5SM -RA SCT040 OVC060
     FM230100 17004KT 5SM -RA BR BKN025 OVC040
     FM230400 VRB04KT 4SM RA BR SCT008 OVC015
     FM231300 VRB03KT P6SM -SHRA BKN020 OVC030
     FM231800 19008KT P6SM -SHRA SCT025 OVC040=



000
FTUS46 KMFR 222300 RRA
TAFOTH
TAF
KOTH 222347Z 2300/2324 19008KT 5SM RA BR BKN025 OVC035
      TEMPO 2300/2302 2SM RA BR OVC015
     FM230200 19010G15KT P6SM -RA BKN015 OVC025
     FM230900 19009KT P6SM -SHRA BKN015 OVC025
     FM231800 22012KT P6SM -SHRA SCT025 BKN035=



000
FTUS46 KMFR 222300 RRA
TAFMFR
TAF
KMFR 222347Z 2300/2324 21011G19KT P6SM VCSH BKN060 OVC080
     FM230200 16007KT P6SM -SHRA SCT040 OVC060
     FM230600 VRB03KT P6SM -RA SCT030 BKN040 OVC060
     FM230900 20005KT 6SM -RA BR FEW020 SCT030 OVC050
     FM231500 VRB03KT P6SM -SHRA SCT030 OVC050
     FM232100 27010KT P6SM VCSH SCT040 OVC060=



000
FTUS46 KMFR 222300 RRA
TAFOTH
TAF
KOTH 222347Z 2300/2324 19008KT 5SM RA BR BKN025 OVC035
      TEMPO 2300/2302 2SM RA BR OVC015
     FM230200 19010G15KT P6SM -RA BKN015 OVC025
     FM230900 19009KT P6SM -SHRA BKN015 OVC025
     FM231800 22012KT P6SM -SHRA SCT025 BKN035=



000
FTUS46 KMFR 222300 RRA
TAFLMT
TAF
KLMT 222347Z 2300/2324 19012G20KT P6SM -SHRA SCT040 BKN060 OVC100
     FM230100 18010G18KT P6SM SCT040 SCT060 OVC100
     FM230600 17012KT P6SM -RA SCT030 BKN040 OVC080
     FM231200 19012G19KT P6SM -RA SCT010 BKN020 OVC030=



000
FTUS46 KMFR 222300 RRA
TAFRBG
TAF
KRBG 222347Z 2300/2324 17010G20KT 5SM -RA SCT040 OVC060
     FM230100 17004KT 5SM -RA BR BKN025 OVC040
     FM230400 VRB04KT 4SM RA BR SCT008 OVC015
     FM231300 VRB03KT P6SM -SHRA BKN020 OVC030
     FM231800 19008KT P6SM -SHRA SCT025 OVC040=



000
FTUS46 KMFR 222300 RRA
TAFMFR
TAF
KMFR 222347Z 2300/2324 21011G19KT P6SM VCSH BKN060 OVC080
     FM230200 16007KT P6SM -SHRA SCT040 OVC060
     FM230600 VRB03KT P6SM -RA SCT030 BKN040 OVC060
     FM230900 20005KT 6SM -RA BR FEW020 SCT030 OVC050
     FM231500 VRB03KT P6SM -SHRA SCT030 OVC050
     FM232100 27010KT P6SM VCSH SCT040 OVC060=



000
FTUS46 KMFR 222200 AAA
TAFOTH
TAF AMD
KOTH 222255Z 2223/2318 26011KT 2SM +RA BR BKN006 OVC015
     FM230100 19012G20KT 3SM RA BR SCT006 OVC015
     FM230600 19010G18KT 5SM -RA BR OVC015
     FM230900 19009KT P6SM -SHRA BKN015 OVC025=



000
FTUS46 KMFR 222200 AAA
TAFOTH
TAF AMD
KOTH 222255Z 2223/2318 26011KT 2SM +RA BR BKN006 OVC015
     FM230100 19012G20KT 3SM RA BR SCT006 OVC015
     FM230600 19010G18KT 5SM -RA BR OVC015
     FM230900 19009KT P6SM -SHRA BKN015 OVC025=



000
FTUS46 KMFR 221700 RRA
TAFOTH
TAF
KOTH 221741Z 2218/2318 17012G18KT 6SM -RA BR SCT015 OVC025
      WS020/20050KT
     FM222100 17015G21KT 5SM RA BR SCT010 OVC020 WS020/20050KT
     FM230100 19020G33KT 3SM RA BR BKN010 OVC020
     FM230300 20015G25KT 2SM +RA BR BKN006 BKN008 OVC010
     FM230600 20010G18KT 5SM RA BR BKN007 OVC015
     FM230900 19009KT P6SM -SHRA BKN015 OVC025=



000
FTUS46 KMFR 221700 RRA
TAFLMT
TAF
KLMT 221741Z 2218/2318 18010G15KT P6SM BKN060 BKN080 OVC100
     FM222000 19012G20KT P6SM -SHRA SCT040 BKN060 OVC100
     FM230100 18010G18KT P6SM SCT040 SCT060 OVC100
     FM230600 17012KT P6SM -RA SCT030 BKN040 OVC080
     FM231200 19012G19KT P6SM -RA SCT010 BKN020 OVC030=



000
FTUS46 KMFR 221700 RRA
TAFMFR
TAF
KMFR 221741Z 2218/2318 VRB05KT P6SM VCSH FEW040 BKN060 OVC080
     FM222100 26006KT P6SM VCSH BKN060 OVC080
     FM230300 16007KT P6SM -SHRA SCT040 OVC060
     FM230600 VRB03KT P6SM -RA SCT030 BKN040 OVC060
     FM230900 20005KT 6SM -RA BR FEW020 SCT030 OVC050
     FM231500 VRB03KT P6SM -SHRA SCT030 OVC050=



000
FTUS46 KMFR 221700 RRA
TAFRBG
TAF
KRBG 221741Z 2218/2318 17010G20KT P6SM -SHRA SCT040 OVC060
     FM230300 17004KT 6SM -RA BR BKN025 OVC040
     FM230600 VRB04KT 4SM RA BR SCT008 OVC015
     FM231500 VRB03KT P6SM -SHRA BKN020 OVC030=



000
FTUS46 KMFR 221700 RRA
TAFMFR
TAF
KMFR 221741Z 2218/2318 VRB05KT P6SM VCSH FEW040 BKN060 OVC080
     FM222100 26006KT P6SM VCSH BKN060 OVC080
     FM230300 16007KT P6SM -SHRA SCT040 OVC060
     FM230600 VRB03KT P6SM -RA SCT030 BKN040 OVC060
     FM230900 20005KT 6SM -RA BR FEW020 SCT030 OVC050
     FM231500 VRB03KT P6SM -SHRA SCT030 OVC050=



000
FTUS46 KMFR 221700 RRA
TAFRBG
TAF
KRBG 221741Z 2218/2318 17010G20KT P6SM -SHRA SCT040 OVC060
     FM230300 17004KT 6SM -RA BR BKN025 OVC040
     FM230600 VRB04KT 4SM RA BR SCT008 OVC015
     FM231500 VRB03KT P6SM -SHRA BKN020 OVC030=



000
FTUS46 KMFR 221700 RRA
TAFOTH
TAF
KOTH 221741Z 2218/2318 17012G18KT 6SM -RA BR SCT015 OVC025
      WS020/20050KT
     FM222100 17015G21KT 5SM RA BR SCT010 OVC020 WS020/20050KT
     FM230100 19020G33KT 3SM RA BR BKN010 OVC020
     FM230300 20015G25KT 2SM +RA BR BKN006 BKN008 OVC010
     FM230600 20010G18KT 5SM RA BR BKN007 OVC015
     FM230900 19009KT P6SM -SHRA BKN015 OVC025=



000
FTUS46 KMFR 221700 RRA
TAFLMT
TAF
KLMT 221741Z 2218/2318 18010G15KT P6SM BKN060 BKN080 OVC100
     FM222000 19012G20KT P6SM -SHRA SCT040 BKN060 OVC100
     FM230100 18010G18KT P6SM SCT040 SCT060 OVC100
     FM230600 17012KT P6SM -RA SCT030 BKN040 OVC080
     FM231200 19012G19KT P6SM -RA SCT010 BKN020 OVC030=



000
FTUS46 KMFR 221100
TAFOTH
TAF
KOTH 221135Z 2212/2312 16011KT 5SM -RA BR BKN020 OVC030
      WS020/19050KT
     FM221400 17016G25KT 5SM -RA BR OVC020 WS020/19050KT
     FM221800 19024G35KT 4SM RA SCT015 BKN025 OVC035
     FM230200 19012G20KT 5SM -RA SCT015 BKN020 OVC035=



000
FTUS46 KMFR 221100
TAFMFR
TAF
KMFR 221135Z 2212/2312 VRB03KT P6SM SCT070 BKN080 BKN120
     FM221800 15010G18KT P6SM VCSH BKN070 OVC090
     FM230000 19009KT P6SM -SHRA BKN060 OVC080
     FM230300 18006KT P6SM -RA BKN035 OVC050=



000
FTUS46 KMFR 221100
TAFLMT
TAF
KLMT 221135Z 2212/2312 16005KT P6SM SCT120 BKN200
     FM221800 18012KT P6SM BKN090 OVC120
     FM222100 18015G24KT P6SM FEW060 BKN100 OVC150
     FM230300 18011KT P6SM -SHRA SCT040 SCT060 OVC100
     FM230700 17012KT P6SM -RA BKN040 OVC060=



000
FTUS46 KMFR 221100
TAFRBG
TAF
KRBG 221135Z 2212/2312 19005KT P6SM -SHRA SCT060 OVC080
     FM221400 17007KT P6SM -RA SCT040 BKN050 OVC080
     FM222100 18010G15KT P6SM -RA BKN040 OVC060
     FM230200 17005KT 6SM -RA BR BKN025 OVC040=



000
FTUS46 KMFR 220500 RRA
TAFLMT
TAF
KLMT 220543Z 2206/2306 16005KT P6SM SCT120 BKN200
     FM222000 18014G22KT P6SM FEW060 BKN100 OVC150
     FM230300 18010KT P6SM SCT040 SCT060 OVC100=



000
FTUS46 KMFR 220500 RRA
TAFRBG
TAF
KRBG 220543Z 2206/2306 VRB03KT P6SM -SHRA SCT060 OVC080
     FM221300 17004KT P6SM -SHRA SCT040 BKN050 OVC080
     FM221800 18008KT P6SM -SHRA SCT040 BKN050 OVC080
     FM222100 18010G15KT P6SM -RA BKN040 OVC060=



000
FTUS46 KMFR 220500 RRA
TAFMFR
TAF
KMFR 220543Z 2206/2306 VRB03KT P6SM -SHRA SCT060 BKN080 BKN120
     FM221000 VRB03KT P6SM SCT070 BKN080 BKN120
     FM221200 16005KT P6SM SCT070 BKN080 BKN120
     FM222000 15010G20KT P6SM BKN070 OVC090
     FM230000 19009KT P6SM -SHRA BKN060 OVC080=



000
FTUS46 KMFR 220500 RRA
TAFOTH
TAF
KOTH 220543Z 2206/2306 16010KT P6SM -SHRA BKN035 OVC050
      WS020/19040KT
     FM220900 17014G20KT 6SM -RA SCT025 OVC030 WS020/20050KT
     FM221200 17015G24KT 5SM RA BKN025 OVC035 WS020/19050KT
     FM221800 19020G35KT 4SM RA SCT015 BKN025 OVC035
     FM230200 20014KT 5SM -RA SCT015 BKN020 OVC035=



000
FTUS46 KMFR 220500 RRA
TAFLMT
TAF
KLMT 220543Z 2206/2306 16005KT P6SM SCT120 BKN200
     FM222000 18014G22KT P6SM FEW060 BKN100 OVC150
     FM230300 18010KT P6SM SCT040 SCT060 OVC100=



000
FTUS46 KMFR 220500 RRA
TAFMFR
TAF
KMFR 220543Z 2206/2306 VRB03KT P6SM -SHRA SCT060 BKN080 BKN120
     FM221000 VRB03KT P6SM SCT070 BKN080 BKN120
     FM221200 16005KT P6SM SCT070 BKN080 BKN120
     FM222000 15010G20KT P6SM BKN070 OVC090
     FM230000 19009KT P6SM -SHRA BKN060 OVC080=



000
FTUS46 KMFR 220500 RRA
TAFOTH
TAF
KOTH 220543Z 2206/2306 16010KT P6SM -SHRA BKN035 OVC050
      WS020/19040KT
     FM220900 17014G20KT 6SM -RA SCT025 OVC030 WS020/20050KT
     FM221200 17015G24KT 5SM RA BKN025 OVC035 WS020/19050KT
     FM221800 19020G35KT 4SM RA SCT015 BKN025 OVC035
     FM230200 20014KT 5SM -RA SCT015 BKN020 OVC035=



000
FTUS46 KMFR 220500 RRA
TAFRBG
TAF
KRBG 220543Z 2206/2306 VRB03KT P6SM -SHRA SCT060 OVC080
     FM221300 17004KT P6SM -SHRA SCT040 BKN050 OVC080
     FM221800 18008KT P6SM -SHRA SCT040 BKN050 OVC080
     FM222100 18010G15KT P6SM -RA BKN040 OVC060=



000
FTUS46 KMFR 220500 AAA
TAFMFR
TAF AMD
KMFR 220513Z 2205/2224 VRB03KT P6SM -SHRA SCT060 BKN080 BKN120
     FM221000 VRB03KT P6SM FEW070 BKN080 BKN120
     FM221200 16005KT P6SM SCT070 BKN090 BKN120
     FM222000 15010G20KT P6SM BKN070 OVC090=



000
FTUS46 KMFR 220500 AAA
TAFMFR
TAF AMD
KMFR 220513Z 2205/2224 VRB03KT P6SM -SHRA SCT060 BKN080 BKN120
     FM221000 VRB03KT P6SM FEW070 BKN080 BKN120
     FM221200 16005KT P6SM SCT070 BKN090 BKN120
     FM222000 15010G20KT P6SM BKN070 OVC090=



    US Dept of Commerce
    National Oceanic and Atmospheric Administration
    National Weather Service
    1325 East West Highway
    Silver Spring, MD 20910
    Page Author: NWS Internet Services Team
Disclaimer
Information Quality
Credits
Glossary
Privacy Policy
Freedom of Information Act (FOIA)
About Us
Career Opportunities